createdAt,value
2019-05-09T00:02:27.106Z,8.70
2019-05-09T00:04:54.646Z,9.70
2019-05-09T00:07:23.295Z,8.03
2019-05-09T00:09:53.225Z,8.53
2019-05-09T00:12:20.320Z,9.60
2019-05-09T00:14:47.881Z,9.10
2019-05-09T00:17:15.447Z,8.80
2019-05-09T00:19:43.875Z,8.30
2019-05-09T00:22:13.651Z,8.30
2019-05-09T00:24:41.005Z,9.03
2019-05-09T00:27:08.965Z,9.00
2019-05-09T00:29:43.846Z,8.20
2019-05-09T00:32:29.410Z,10.83
2019-05-09T00:35:03.857Z,9.90
2019-05-09T00:37:49.661Z,9.70
2019-05-09T00:40:19.018Z,9.20
2019-05-09T00:42:47.555Z,10.43
2019-05-09T00:45:38.005Z,10.07
2019-05-09T00:48:05.578Z,10.83
2019-05-09T00:50:34.198Z,10.30
2019-05-09T00:53:03.103Z,9.60
2019-05-09T00:55:30.683Z,10.17
2019-05-09T00:57:58.375Z,9.67
2019-05-09T01:00:26.038Z,9.30
2019-05-09T01:02:54.228Z,9.90
2019-05-09T01:05:23.919Z,9.47
2019-05-09T01:07:53.627Z,10.53
2019-05-09T01:10:20.675Z,10.97
2019-05-09T01:12:48.475Z,11.50
2019-05-09T01:15:17.459Z,10.60
2019-05-09T01:17:44.907Z,11.00
2019-05-09T01:20:14.563Z,10.00
2019-05-09T01:22:43.580Z,11.70
2019-05-09T01:25:13.312Z,11.43
2019-05-09T01:27:40.396Z,12.70
2019-05-09T01:30:08.328Z,12.50
2019-05-09T01:32:57.971Z,11.40
2019-05-09T01:35:25.499Z,11.73
2019-05-09T01:37:53.886Z,12.47
2019-05-09T01:40:23.793Z,12.07
2019-05-09T01:42:53.949Z,13.30
2019-05-09T01:45:23.547Z,12.10
2019-05-09T01:47:50.826Z,14.00
2019-05-09T01:50:18.282Z,13.63
2019-05-09T01:52:46.226Z,14.77
2019-05-09T01:55:14.304Z,14.90
2019-05-09T01:57:45.606Z,14.20
2019-05-09T02:00:13.258Z,14.37
2019-05-09T02:02:40.836Z,16.43
2019-05-09T02:05:08.606Z,15.43
2019-05-09T02:07:35.933Z,15.23
2019-05-09T02:10:03.753Z,15.03
2019-05-09T02:12:31.078Z,16.27
2019-05-09T02:15:18.025Z,16.10
2019-05-09T02:18:01.095Z,15.83
2019-05-09T02:20:24.057Z,17.60
2019-05-09T02:22:54.247Z,17.37
2019-05-09T02:25:24.071Z,17.40
2019-05-09T02:27:51.012Z,16.57
2019-05-09T02:30:18.502Z,18.97
2019-05-09T02:32:46.366Z,18.23
2019-05-09T02:35:13.879Z,17.37
2019-05-09T02:37:41.452Z,18.53
2019-05-09T02:40:09.957Z,21.03
2019-05-09T02:42:39.559Z,20.03
2019-05-09T02:45:08.357Z,20.43
2019-05-09T02:47:38.549Z,21.47
2019-05-09T02:50:08.922Z,20.30
2019-05-09T02:52:35.224Z,21.97
2019-05-09T02:55:02.861Z,23.13
2019-05-09T02:57:30.508Z,24.03
2019-05-09T03:00:20.471Z,22.87
2019-05-09T03:03:13.323Z,22.67
2019-05-09T03:05:40.734Z,22.40
2019-05-09T03:08:08.963Z,24.13
2019-05-09T03:10:38.040Z,27.00
2019-05-09T03:13:08.670Z,23.17
2019-05-09T03:15:35.204Z,27.23
2019-05-09T03:18:02.756Z,27.30
2019-05-09T03:20:40.318Z,27.67
2019-05-09T03:23:09.067Z,26.70
2019-05-09T03:25:40.516Z,28.87
2019-05-09T03:28:18.438Z,25.47
2019-05-09T03:30:50.092Z,27.30
2019-05-09T03:33:20.056Z,26.87
2019-05-09T03:35:48.821Z,27.03
2019-05-09T03:38:17.973Z,26.80
2019-05-09T03:40:47.664Z,27.37
2019-05-09T03:43:15.331Z,28.10
2019-05-09T03:45:49.948Z,28.80
2019-05-09T03:48:23.366Z,27.73
2019-05-09T03:50:50.821Z,27.37
2019-05-09T03:53:18.533Z,27.77
2019-05-09T03:55:47.544Z,26.80
2019-05-09T03:58:18.365Z,30.37
2019-05-09T04:00:48.857Z,29.23
2019-05-09T04:03:19.816Z,26.83
2019-05-09T04:06:05.210Z,30.80
2019-05-09T04:08:33.021Z,29.57
2019-05-09T04:11:00.569Z,28.33
2019-05-09T04:13:33.713Z,28.10
2019-05-09T04:16:01.120Z,29.67
2019-05-09T04:18:28.629Z,30.03
2019-05-09T04:20:57.342Z,31.90
2019-05-09T04:23:24.973Z,30.80
2019-05-09T04:26:01.117Z,30.77
2019-05-09T04:28:28.617Z,30.90
2019-05-09T04:30:58.145Z,27.70
2019-05-09T04:33:27.803Z,31.57
2019-05-09T04:35:55.009Z,31.47
2019-05-09T04:38:22.605Z,31.07
2019-05-09T04:40:50.006Z,31.70
2019-05-09T04:43:26.709Z,31.80
2019-05-09T04:45:54.038Z,33.77
2019-05-09T04:48:31.335Z,32.80
2019-05-09T04:51:00.526Z,33.30
2019-05-09T04:53:28.576Z,34.60
2019-05-09T04:55:58.154Z,35.33
2019-05-09T04:58:27.408Z,33.27
2019-05-09T05:01:13.483Z,31.37
2019-05-09T05:03:42.453Z,31.50
2019-05-09T05:06:10.283Z,31.70
2019-05-09T05:08:37.815Z,32.03
2019-05-09T05:11:07.327Z,31.87
2019-05-09T05:13:34.490Z,31.60
2019-05-09T05:16:02.885Z,30.43
2019-05-09T05:18:30.960Z,27.80
2019-05-09T05:20:58.578Z,31.30
2019-05-09T05:23:32.694Z,30.17
2019-05-09T05:26:00.325Z,30.00
2019-05-09T05:28:28.314Z,31.03
2019-05-09T05:30:58.067Z,31.50
2019-05-09T05:33:34.595Z,28.97
2019-05-09T05:36:05.173Z,29.30
2019-05-09T05:38:32.577Z,31.37
2019-05-09T05:41:00.294Z,27.60
2019-05-09T05:43:40.901Z,28.50
2019-05-09T05:46:15.269Z,28.43
2019-05-09T05:48:43.302Z,28.47
2019-05-09T05:51:10.717Z,27.83
2019-05-09T05:53:38.146Z,27.57
2019-05-09T05:56:05.648Z,29.17
2019-05-09T05:58:33.202Z,27.97
2019-05-09T06:01:04.145Z,27.80
2019-05-09T06:03:30.243Z,26.33
2019-05-09T06:05:58.439Z,26.50
2019-05-09T06:08:27.566Z,26.70
2019-05-09T06:10:57.470Z,25.60
2019-05-09T06:13:24.591Z,25.77
2019-05-09T06:15:51.955Z,25.37
2019-05-09T06:18:19.526Z,27.10
2019-05-09T06:20:48.644Z,25.70
2019-05-09T06:23:17.601Z,25.10
2019-05-09T06:25:48.453Z,27.93
2019-05-09T06:28:15.302Z,28.20
2019-05-09T06:30:42.633Z,28.67
2019-05-09T06:33:10.163Z,28.00
2019-05-09T06:35:38.026Z,25.87
2019-05-09T06:38:07.677Z,22.80
2019-05-09T06:40:34.974Z,23.80
2019-05-09T06:43:18.279Z,22.97
2019-05-09T06:46:12.999Z,20.73
2019-05-09T06:48:40.497Z,21.70
2019-05-09T06:51:07.879Z,19.47
2019-05-09T06:53:35.322Z,21.13
2019-05-09T06:56:02.862Z,19.43
2019-05-09T06:58:30.377Z,18.10
2019-05-09T07:01:04.902Z,18.23
2019-05-09T07:03:32.779Z,17.53
2019-05-09T07:06:08.462Z,16.60
2019-05-09T07:08:49.193Z,16.27
2019-05-09T07:11:19.033Z,16.37
2019-05-09T07:13:47.770Z,16.67
2019-05-09T07:16:15.265Z,16.30
2019-05-09T07:18:43.073Z,17.20
2019-05-09T07:21:10.620Z,15.20
2019-05-09T07:23:38.043Z,13.67
2019-05-09T07:26:09.595Z,14.00
2019-05-09T07:28:37.729Z,14.10
2019-05-09T07:31:23.415Z,15.37
2019-05-09T07:33:58.833Z,14.37
2019-05-09T07:36:27.812Z,13.17
2019-05-09T07:38:55.350Z,12.17
2019-05-09T07:41:23.020Z,12.90
2019-05-09T07:43:53.765Z,12.60
2019-05-09T07:46:28.096Z,11.57
2019-05-09T07:48:57.798Z,11.00
2019-05-09T07:51:27.304Z,11.80
2019-05-09T07:53:54.342Z,12.43
2019-05-09T07:56:22.178Z,11.27
2019-05-09T07:58:49.674Z,11.90
2019-05-09T08:01:19.054Z,10.07
2019-05-09T08:03:49.027Z,11.43
2019-05-09T08:06:18.338Z,10.83
2019-05-09T08:08:48.752Z,10.07
2019-05-09T08:11:17.978Z,9.10
2019-05-09T08:13:48.590Z,10.20
2019-05-09T08:16:18.432Z,9.63
2019-05-09T08:18:48.165Z,8.53
2019-05-09T08:21:17.966Z,8.53
2019-05-09T08:23:48.504Z,8.03
2019-05-09T08:26:18.668Z,8.70
2019-05-09T08:28:48.132Z,11.03
2019-05-09T08:31:17.692Z,9.67
2019-05-09T08:33:48.605Z,10.53
2019-05-09T08:36:18.016Z,9.67
2019-05-09T08:38:47.767Z,9.50
2019-05-09T08:41:18.390Z,9.47
2019-05-09T08:43:48.169Z,8.80
2019-05-09T08:46:15.218Z,8.97
2019-05-09T08:48:43.242Z,8.40
2019-05-09T08:51:38.443Z,9.50
2019-05-09T08:54:03.315Z,9.20
2019-05-09T08:56:30.805Z,7.57
2019-05-09T08:59:01.931Z,7.33
2019-05-09T09:01:46.061Z,7.10
2019-05-09T09:03:57.635Z,7.50
2019-05-09T09:06:27.681Z,8.90
2019-05-09T09:08:57.644Z,7.47
2019-05-09T09:11:25.136Z,8.10
2019-05-09T09:13:52.490Z,8.70
2019-05-09T09:16:22.542Z,8.37
2019-05-09T09:18:49.345Z,8.60
2019-05-09T09:21:18.286Z,8.60
2019-05-09T09:23:50.467Z,7.60
2019-05-09T09:26:18.230Z,7.33
2019-05-09T09:28:48.565Z,6.40
2019-05-09T09:31:17.920Z,5.93
2019-05-09T09:33:47.851Z,7.60
2019-05-09T09:36:17.641Z,6.20
2019-05-09T09:38:48.021Z,6.10
2019-05-09T09:41:14.534Z,6.80
2019-05-09T09:43:42.039Z,5.40
2019-05-09T09:46:14.472Z,6.37
2019-05-09T09:48:39.191Z,7.00
2019-05-09T09:51:08.039Z,5.80
2019-05-09T09:53:38.242Z,6.13
2019-05-09T09:56:05.590Z,5.63
2019-05-09T09:58:32.946Z,5.83
2019-05-09T10:01:24.348Z,6.33
2019-05-09T10:04:15.654Z,4.37
2019-05-09T10:06:31.475Z,3.80
2019-05-09T10:08:58.903Z,4.60
2019-05-09T10:11:28.577Z,5.87
2019-05-09T10:13:55.627Z,5.10
2019-05-09T10:16:48.410Z,4.30
2019-05-09T10:19:21.691Z,6.70
2019-05-09T10:21:52.372Z,4.40
2019-05-09T10:24:19.975Z,3.93
2019-05-09T10:27:08.775Z,3.23
2019-05-09T10:29:38.523Z,3.30
2019-05-09T10:32:09.553Z,3.03
2019-05-09T10:34:37.819Z,3.93
2019-05-09T10:37:07.729Z,4.43
2019-05-09T10:39:37.938Z,4.90
2019-05-09T10:42:11.735Z,4.47
2019-05-09T10:44:46.198Z,3.70
2019-05-09T10:47:22.697Z,3.37
2019-05-09T10:49:50.456Z,3.60
2019-05-09T10:52:18.331Z,3.40
2019-05-09T10:54:47.411Z,3.07
2019-05-09T10:57:14.892Z,3.20
2019-05-09T10:59:42.508Z,4.23
2019-05-09T11:02:10.007Z,3.30
2019-05-09T11:04:39.814Z,3.20
2019-05-09T11:07:08.070Z,3.60
2019-05-09T11:09:35.744Z,3.70
2019-05-09T11:12:03.327Z,3.03
2019-05-09T11:14:36.770Z,2.90
2019-05-09T11:17:11.013Z,2.67
2019-05-09T11:19:29.686Z,2.50
2019-05-09T11:21:58.610Z,3.00
2019-05-09T11:24:41.787Z,3.00
2019-05-09T11:27:15.329Z,2.97
2019-05-09T11:29:46.260Z,2.30
2019-05-09T11:32:12.405Z,2.60
2019-05-09T11:34:39.967Z,2.67
2019-05-09T11:37:08.446Z,2.30
2019-05-09T11:39:41.779Z,2.57
2019-05-09T11:42:05.506Z,2.13
2019-05-09T11:44:33.892Z,2.43
2019-05-09T11:47:01.403Z,2.63
2019-05-09T11:49:29.612Z,2.20
2019-05-09T11:51:57.768Z,2.53
2019-05-09T11:54:28.020Z,2.00
2019-05-09T11:56:57.807Z,2.07
2019-05-09T11:59:25.285Z,2.63
2019-05-09T12:01:52.880Z,1.87
2019-05-09T12:04:20.494Z,2.70
2019-05-09T12:06:49.368Z,2.37
2019-05-09T12:09:17.116Z,3.13
2019-05-09T12:11:44.934Z,2.10
2019-05-09T12:14:13.615Z,2.20
2019-05-09T12:16:41.752Z,3.00
2019-05-09T12:19:09.060Z,2.00
2019-05-09T12:21:46.639Z,3.00
2019-05-09T12:24:06.022Z,2.57
2019-05-09T12:26:34.665Z,3.07
2019-05-09T12:29:02.223Z,2.40
2019-05-09T12:31:29.722Z,2.30
2019-05-09T12:33:59.268Z,2.30
2019-05-09T12:36:28.670Z,2.00
2019-05-09T12:38:59.073Z,2.50
2019-05-09T12:41:30.986Z,1.90
2019-05-09T12:43:57.455Z,2.10
2019-05-09T12:46:25.141Z,1.93
2019-05-09T12:48:52.892Z,2.00
2019-05-09T12:51:20.582Z,2.40
2019-05-09T12:53:48.741Z,2.13
2019-05-09T12:56:18.698Z,2.20
2019-05-09T12:58:47.758Z,2.10
2019-05-09T13:01:15.197Z,2.07
2019-05-09T13:03:48.246Z,2.20
2019-05-09T13:06:19.563Z,1.90
2019-05-09T13:08:44.672Z,2.03
2019-05-09T13:11:12.341Z,2.47
2019-05-09T13:13:41.137Z,3.33
2019-05-09T13:16:39.108Z,1.90
2019-05-09T13:19:14.416Z,2.07
2019-05-09T13:21:43.138Z,2.13
2019-05-09T13:24:10.750Z,1.90
2019-05-09T13:26:38.836Z,1.83
2019-05-09T13:29:08.094Z,1.73
2019-05-09T13:31:39.199Z,1.93
2019-05-09T13:34:07.708Z,1.90
2019-05-09T13:36:34.604Z,2.07
2019-05-09T13:39:04.987Z,2.33
2019-05-09T13:41:32.602Z,1.80
2019-05-09T13:44:05.146Z,2.23
2019-05-09T13:46:29.458Z,2.30
2019-05-09T13:49:14.873Z,2.10
2019-05-09T13:51:47.082Z,2.27
2019-05-09T13:54:07.698Z,1.87
2019-05-09T13:56:35.297Z,1.90
2019-05-09T13:59:03.500Z,2.00
2019-05-09T14:01:31.172Z,1.63
2019-05-09T14:03:59.056Z,2.20
2019-05-09T14:06:27.904Z,2.63
2019-05-09T14:08:59.360Z,2.20
2019-05-09T14:11:25.145Z,2.10
2019-05-09T14:13:52.547Z,2.00
2019-05-09T14:16:22.263Z,2.37
2019-05-09T14:18:49.808Z,2.17
2019-05-09T14:21:21.434Z,2.40
2019-05-09T14:24:00.165Z,2.50
2019-05-09T14:26:17.954Z,2.50
2019-05-09T14:28:45.626Z,2.60
2019-05-09T14:31:13.137Z,2.13
2019-05-09T14:33:40.620Z,2.30
2019-05-09T14:36:08.358Z,2.00
2019-05-09T14:38:36.160Z,2.40
2019-05-09T14:41:03.783Z,2.00
2019-05-09T14:43:31.358Z,2.23
2019-05-09T14:45:58.753Z,1.77
2019-05-09T14:48:28.542Z,2.37
2019-05-09T14:50:58.183Z,2.00
2019-05-09T14:53:25.010Z,2.10
2019-05-09T14:55:52.535Z,2.50
2019-05-09T14:58:19.946Z,3.27
2019-05-09T15:00:47.960Z,1.90
2019-05-09T15:03:15.466Z,2.70
2019-05-09T15:05:47.887Z,2.10
2019-05-09T15:08:15.018Z,2.00
2019-05-09T15:10:42.769Z,2.63
2019-05-09T15:13:10.287Z,2.03
2019-05-09T15:15:38.187Z,2.47
2019-05-09T15:18:08.051Z,2.63
2019-05-09T15:20:35.281Z,2.10
2019-05-09T15:23:02.909Z,2.43
2019-05-09T15:25:30.677Z,1.90
2019-05-09T15:27:58.226Z,2.43
2019-05-09T15:30:28.420Z,2.70
2019-05-09T15:32:55.032Z,2.50
2019-05-09T15:35:22.683Z,2.60
2019-05-09T15:37:50.208Z,2.17
2019-05-09T15:40:18.429Z,2.20
2019-05-09T15:42:47.867Z,2.17
2019-05-09T15:45:18.111Z,1.73
2019-05-09T15:47:45.138Z,2.37
2019-05-09T15:50:22.513Z,2.20
2019-05-09T15:52:42.786Z,2.07
2019-05-09T15:55:10.449Z,2.17
2019-05-09T15:57:38.050Z,2.00
2019-05-09T16:00:09.297Z,2.20
2019-05-09T16:02:39.147Z,2.20
2019-05-09T16:05:10.537Z,2.00
2019-05-09T16:07:37.489Z,2.23
2019-05-09T16:10:05.593Z,2.20
2019-05-09T16:12:33.451Z,3.30
2019-05-09T16:15:02.161Z,4.07
2019-05-09T16:17:29.927Z,2.53
2019-05-09T16:19:58.243Z,2.30
2019-05-09T16:22:28.259Z,2.60
2019-05-09T16:24:55.131Z,2.50
2019-05-09T16:27:22.803Z,2.60
2019-05-09T16:29:50.246Z,2.43
2019-05-09T16:32:17.966Z,2.20
2019-05-09T16:34:45.357Z,2.57
2019-05-09T16:37:13.096Z,2.40
2019-05-09T16:39:40.669Z,2.47
2019-05-09T16:42:11.611Z,2.00
2019-05-09T16:44:41.764Z,2.20
2019-05-09T16:47:08.503Z,2.50
2019-05-09T16:49:38.488Z,2.33
2019-05-09T16:52:07.359Z,2.47
2019-05-09T16:54:38.801Z,2.40
2019-05-09T16:57:08.254Z,2.20
2019-05-09T16:59:38.624Z,2.80
2019-05-09T17:02:17.827Z,2.40
2019-05-09T17:04:35.234Z,2.47
2019-05-09T17:07:03.867Z,2.30
2019-05-09T17:09:32.681Z,2.37
2019-05-09T17:12:00.305Z,3.13
2019-05-09T17:14:28.386Z,2.13
2019-05-09T17:16:59.625Z,1.90
2019-05-09T17:19:28.093Z,1.67
2019-05-09T17:22:11.555Z,1.77
2019-05-09T17:24:40.423Z,8.63
2019-05-09T17:27:08.715Z,2.10
2019-05-09T17:29:38.330Z,1.40
2019-05-09T17:32:07.746Z,2.20
2019-05-09T17:34:37.924Z,1.73
2019-05-09T17:37:05.384Z,1.60
2019-05-09T17:39:33.213Z,1.80
2019-05-09T17:42:01.008Z,1.77
2019-05-09T17:44:28.805Z,1.20
2019-05-09T17:46:59.673Z,1.40
2019-05-09T17:49:28.083Z,1.57
2019-05-09T17:51:58.219Z,1.10
2019-05-09T17:54:25.211Z,1.43
2019-05-09T17:56:52.901Z,1.43
2019-05-09T17:59:20.592Z,1.87
2019-05-09T18:01:48.361Z,1.30
2019-05-09T18:04:17.987Z,1.50
2019-05-09T18:06:45.802Z,1.40
2019-05-09T18:09:13.618Z,1.57
2019-05-09T18:11:41.772Z,2.67
2019-05-09T18:14:10.436Z,2.40
2019-05-09T18:16:39.098Z,3.10
2019-05-09T18:19:08.293Z,3.17
2019-05-09T18:21:49.554Z,2.13
2019-05-09T18:24:10.972Z,2.10
2019-05-09T18:26:41.372Z,2.37
2019-05-09T18:29:09.040Z,2.30
2019-05-09T18:32:08.120Z,2.10
2019-05-09T18:34:37.869Z,4.30
2019-05-09T18:37:07.805Z,1.70
2019-05-09T18:39:37.334Z,3.03
2019-05-09T18:42:04.673Z,2.63
2019-05-09T18:44:32.243Z,2.53
2019-05-09T18:46:59.782Z,2.17
2019-05-09T18:49:27.347Z,2.50
2019-05-09T18:52:03.317Z,2.80
2019-05-09T18:54:24.535Z,2.13
2019-05-09T18:56:52.132Z,1.80
2019-05-09T18:59:19.806Z,2.53
2019-05-09T19:01:47.488Z,2.47
2019-05-09T19:04:15.516Z,2.40
2019-05-09T19:06:43.147Z,2.40
2019-05-09T19:09:11.030Z,2.37
2019-05-09T19:11:38.968Z,3.33
2019-05-09T19:14:08.079Z,3.03
2019-05-09T19:16:46.539Z,3.37
2019-05-09T19:19:20.515Z,2.30
2019-05-09T19:21:54.073Z,2.50
2019-05-09T19:24:21.803Z,2.60
2019-05-09T19:26:49.442Z,6.87
2019-05-09T19:29:17.547Z,3.63
2019-05-09T19:31:45.272Z,3.07
2019-05-09T19:34:12.727Z,3.00
2019-05-09T19:36:40.187Z,3.63
2019-05-09T19:39:11.371Z,2.80
2019-05-09T19:41:39.495Z,2.67
2019-05-09T19:44:07.721Z,3.13
2019-05-09T19:46:36.342Z,3.30
2019-05-09T19:49:03.961Z,3.60
2019-05-09T19:51:32.677Z,3.90
2019-05-09T19:54:00.423Z,4.50
2019-05-09T19:56:27.923Z,3.93
2019-05-09T20:01:57.904Z,2.83
2019-05-09T20:04:26.280Z,3.63
2019-05-09T20:06:55.617Z,3.57
2019-05-09T20:09:28.870Z,3.50
2019-05-09T20:12:02.657Z,3.70
2019-05-09T20:14:39.613Z,3.27
2019-05-09T20:17:07.408Z,2.97
2019-05-09T20:19:35.501Z,3.60
2019-05-09T20:22:03.851Z,3.50
2019-05-09T20:24:31.467Z,4.00
2019-05-09T20:27:00.350Z,3.80
2019-05-09T20:29:30.202Z,4.03
2019-05-09T20:31:57.284Z,4.30
2019-05-09T20:34:24.848Z,3.67
2019-05-09T20:36:52.452Z,4.30
2019-05-09T20:39:20.194Z,4.20
2019-05-09T20:41:47.805Z,4.80
2019-05-09T20:44:15.270Z,4.20
2019-05-09T20:46:43.239Z,4.17
2019-05-09T20:49:10.801Z,4.20
2019-05-09T20:51:38.443Z,4.07
2019-05-09T20:54:20.001Z,4.33
2019-05-09T20:56:35.358Z,6.20
2019-05-09T20:59:02.915Z,8.10
2019-05-09T21:01:30.598Z,7.97
2019-05-09T21:04:00.567Z,8.27
2019-05-09T21:06:27.673Z,7.00
2019-05-09T21:08:55.383Z,6.03
2019-05-09T21:11:22.901Z,4.67
2019-05-09T21:13:50.772Z,4.27
2019-05-09T21:16:18.515Z,4.80
2019-05-09T21:18:46.205Z,4.20
2019-05-09T21:21:13.830Z,4.87
2019-05-09T21:23:43.627Z,4.10
2019-05-09T21:26:11.289Z,3.10
2019-05-09T21:28:38.985Z,3.10
2019-05-09T21:31:06.661Z,3.53
2019-05-09T21:33:34.232Z,4.00
2019-05-09T21:36:01.716Z,4.73
2019-05-09T21:38:29.138Z,4.63
2019-05-09T21:40:56.538Z,5.63
2019-05-09T21:43:24.126Z,5.07
2019-05-09T21:45:51.601Z,5.60
2019-05-09T21:48:19.178Z,7.00
2019-05-09T21:50:46.827Z,6.60
2019-05-09T21:53:15.384Z,7.20
2019-05-09T21:55:44.110Z,6.40
2019-05-09T21:58:11.610Z,6.43
2019-05-09T22:00:42.447Z,6.67
2019-05-09T22:03:11.787Z,7.00
2019-05-09T22:05:39.281Z,7.43
2019-05-09T22:08:06.851Z,8.60
2019-05-09T22:10:35.677Z,8.20
2019-05-09T22:13:03.353Z,8.67
2019-05-09T22:15:30.890Z,7.77
2019-05-09T22:17:58.319Z,8.40
2019-05-09T22:20:25.891Z,7.83
2019-05-09T22:22:53.338Z,8.40
2019-05-09T22:25:20.774Z,8.57
2019-05-09T22:27:49.520Z,8.17
2019-05-09T22:30:18.880Z,10.27
2019-05-09T22:32:46.313Z,9.00
2019-05-09T22:35:14.861Z,8.03
2019-05-09T22:37:42.658Z,9.37
2019-05-09T22:40:10.545Z,9.80
2019-05-09T22:42:38.101Z,10.57
2019-05-09T22:45:06.828Z,9.57
2019-05-09T22:47:34.246Z,8.87
2019-05-09T22:50:01.770Z,8.60
2019-05-09T22:52:29.267Z,10.40
2019-05-09T22:54:56.940Z,10.10
2019-05-09T22:57:24.450Z,11.10
2019-05-09T22:59:51.922Z,11.00
2019-05-09T23:02:19.504Z,9.83
2019-05-09T23:04:47.093Z,11.43
2019-05-09T23:07:14.674Z,10.83
2019-05-09T23:09:43.547Z,10.60
2019-05-09T23:12:11.105Z,10.80
2019-05-09T23:14:38.514Z,10.77
2019-05-09T23:17:06.706Z,11.10
2019-05-09T23:19:34.275Z,11.53
2019-05-09T23:22:01.762Z,10.40
2019-05-09T23:24:31.255Z,11.40
2019-05-09T23:26:59.717Z,10.90
2019-05-09T23:29:27.290Z,11.80
2019-05-09T23:32:03.905Z,11.10
2019-05-09T23:34:32.522Z,10.80
2019-05-09T23:37:19.427Z,11.63
2019-05-09T23:39:47.478Z,11.87
2019-05-09T23:42:15.010Z,11.23
2019-05-09T23:45:01.998Z,11.80
2019-05-09T23:47:29.583Z,12.73
2019-05-09T23:49:56.975Z,12.17
2019-05-09T23:52:24.486Z,12.10
2019-05-09T23:55:10.552Z,12.13
2019-05-09T23:57:56.438Z,12.50
